パゴパゴ の空港の天気 - METARとTAF

パゴパゴ国際空港 ( NSTU / PPG ) - アメリカ領サモア パゴパゴ
飛行場実況気象(Metar)
観測時間11/17 06:50 SST (11/17 17:50 UTC)
風向・風速北 3m/s
視程10km以上
天気現象
全天の4割程度の雲 雲底高度 460m
全天の8割程度の雲 雲底高度 1220m
全天を覆う雲 雲底高度 2440m
気温26.6℃
湿度89%
気圧1007.8hPa
METARNSTU 171750Z VRB06KT 12SM SCT015 BKN040 OVC080 27/25 A2976 RMK SHRAE45 SLP078 60020 8/82/ T02660247 10266 20259 51017
過去の天気等 Google飛行場航空写真 Wunderground天気予報

過去48時間のMETAR

飛行場予報(TAF)
発表時間: 11/17 06:38 SST (11/17 17:38 UTC)
予報対象時間: 17日7時 SST ~ 18日7時 SST
風向・風速不定 3m/s
視程10km以上
天気現象周辺でしゅう雨
全天の4割程度の雲 雲底高度 460m
全天の8割程度の雲 雲底高度 1070m
全天を覆う雲 雲底高度 3050m
NSTU 171738Z 1718/1818 VRB05KT P6SM VCSH SCT015 BKN035 OVC100